createdAt,value
2023-02-09T00:02:46.732Z,18.87
2023-02-09T00:06:50.479Z,17.43
2023-02-09T00:10:53.452Z,19.10
2023-02-09T00:14:58.276Z,20.40
2023-02-09T00:19:01.265Z,19.23
2023-02-09T00:23:04.296Z,20.30
2023-02-09T00:27:07.266Z,19.03
2023-02-09T00:31:13.690Z,20.30
2023-02-09T00:35:17.267Z,19.93
2023-02-09T00:39:20.305Z,19.13
2023-02-09T00:43:23.305Z,18.70
2023-02-09T00:47:30.301Z,18.87
2023-02-09T00:51:33.452Z,19.67
2023-02-09T00:55:38.481Z,18.13
2023-02-09T00:59:42.830Z,19.73
2023-02-09T01:03:47.358Z,18.60
2023-02-09T01:07:50.948Z,18.57
2023-02-09T01:11:54.030Z,20.73
2023-02-09T01:15:57.064Z,17.87
2023-02-09T01:20:01.911Z,16.90
2023-02-09T01:24:05.338Z,19.20
2023-02-09T01:28:08.451Z,18.77
2023-02-09T01:32:11.648Z,20.50
2023-02-09T01:36:16.288Z,26.53
2023-02-09T01:40:19.318Z,21.17
2023-02-09T01:44:59.561Z,18.60
2023-02-09T01:49:09.418Z,21.40
2023-02-09T01:53:14.299Z,20.40
2023-02-09T01:57:23.737Z,22.10
2023-02-09T02:01:27.805Z,23.03
2023-02-09T02:05:32.873Z,23.03
2023-02-09T02:09:37.480Z,23.63
2023-02-09T02:13:40.635Z,23.43
2023-02-09T02:17:59.304Z,20.73
2023-02-09T02:22:43.428Z,21.90
2023-02-09T02:26:56.374Z,23.67
2023-02-09T02:31:29.715Z,21.00
2023-02-09T02:35:38.873Z,19.27
2023-02-09T02:39:51.078Z,22.37
2023-02-09T02:44:02.025Z,20.53
2023-02-09T02:48:14.391Z,20.33
2023-02-09T02:52:18.992Z,20.57
2023-02-09T02:56:26.022Z,25.33
2023-02-09T03:00:33.759Z,19.40
2023-02-09T03:04:40.198Z,23.77
2023-02-09T03:08:52.835Z,19.30
2023-02-09T03:13:09.293Z,22.87
2023-02-09T03:17:26.900Z,23.37
2023-02-09T03:21:42.776Z,25.87
2023-02-09T03:25:52.765Z,20.10
2023-02-09T03:29:59.182Z,23.83
2023-02-09T03:34:02.613Z,24.40
2023-02-09T03:38:07.125Z,24.13
2023-02-09T03:42:12.184Z,24.27
2023-02-09T03:46:15.199Z,23.10
2023-02-09T03:50:18.745Z,25.43
2023-02-09T03:54:22.677Z,23.97
2023-02-09T03:58:27.407Z,23.33
2023-02-09T04:02:30.814Z,25.67
2023-02-09T04:06:34.958Z,23.73
2023-02-09T04:10:37.964Z,30.43
2023-02-09T04:14:42.459Z,24.83
2023-02-09T04:18:45.998Z,27.97
2023-02-09T04:22:49.110Z,24.70
2023-02-09T04:26:52.065Z,26.37
2023-02-09T04:30:57.520Z,24.20
2023-02-09T04:35:00.542Z,23.77
2023-02-09T04:39:03.672Z,23.73
2023-02-09T04:43:07.304Z,25.93
2023-02-09T04:47:11.827Z,25.97
2023-02-09T04:51:14.984Z,24.87
2023-02-09T04:55:18.188Z,22.43
2023-02-09T04:59:35.984Z,24.67
2023-02-09T05:03:40.438Z,23.60
2023-02-09T05:07:43.433Z,21.30
2023-02-09T05:11:46.494Z,22.57
2023-02-09T05:15:49.679Z,24.13
2023-02-09T05:19:54.325Z,24.33
2023-02-09T05:23:57.278Z,22.97
2023-02-09T05:28:00.434Z,24.27
2023-02-09T05:32:03.655Z,24.23
2023-02-09T05:36:09.997Z,24.30
2023-02-09T05:40:13.960Z,27.57
2023-02-09T05:44:17.428Z,21.60
2023-02-09T05:48:20.402Z,24.90
2023-02-09T05:52:25.026Z,22.70
2023-02-09T05:56:28.037Z,22.93
2023-02-09T06:00:31.860Z,22.57
2023-02-09T06:04:36.107Z,25.17
2023-02-09T06:08:40.509Z,21.87
2023-02-09T06:12:43.510Z,21.87
2023-02-09T06:16:46.846Z,24.00
2023-02-09T06:20:49.813Z,20.77
2023-02-09T06:24:54.367Z,22.33
2023-02-09T06:28:57.341Z,20.50
2023-02-09T06:33:00.398Z,20.60
2023-02-09T06:37:03.434Z,21.80
2023-02-09T06:41:07.980Z,20.37
2023-02-09T06:45:11.617Z,20.40
2023-02-09T06:49:14.802Z,20.77
2023-02-09T06:53:18.724Z,20.20
2023-02-09T06:57:23.229Z,19.60
2023-02-09T07:01:26.272Z,20.57
2023-02-09T07:05:29.456Z,19.17
2023-02-09T07:09:32.438Z,22.43
2023-02-09T07:13:37.284Z,20.77
2023-02-09T07:17:40.764Z,23.47
2023-02-09T07:21:43.873Z,25.80
2023-02-09T07:25:46.844Z,21.47
2023-02-09T07:29:51.360Z,19.83
2023-02-09T07:33:55.750Z,21.73
2023-02-09T07:37:58.881Z,19.67
2023-02-09T07:42:02.119Z,22.33
2023-02-09T07:46:25.644Z,21.30
2023-02-09T07:50:28.708Z,22.43
2023-02-09T07:54:31.832Z,20.93
2023-02-09T07:58:34.880Z,23.40
2023-02-09T08:02:39.918Z,20.27
2023-02-09T08:06:46.147Z,23.10
2023-02-09T08:10:49.481Z,21.70
2023-02-09T08:14:52.469Z,22.53
2023-02-09T08:18:59.994Z,18.73
2023-02-09T08:23:08.331Z,22.20
2023-02-09T08:27:11.960Z,20.47
2023-02-09T08:31:17.401Z,19.67
2023-02-09T08:35:22.000Z,22.77
2023-02-09T08:39:25.040Z,24.43
2023-02-09T08:43:28.092Z,20.50
2023-02-09T08:47:31.228Z,22.03
2023-02-09T08:51:35.704Z,21.67
2023-02-09T08:55:39.427Z,20.33
2023-02-09T08:59:42.802Z,21.93
2023-02-09T09:03:45.779Z,18.73
2023-02-09T09:07:50.227Z,18.90
2023-02-09T09:11:53.318Z,19.23
2023-02-09T09:15:56.553Z,21.97
2023-02-09T09:20:00.657Z,23.27
2023-02-09T09:24:05.656Z,17.67
2023-02-09T09:28:09.837Z,21.47
2023-02-09T09:32:14.845Z,17.07
2023-02-09T09:36:17.919Z,20.17
2023-02-09T09:40:25.550Z,18.30
2023-02-09T09:44:33.502Z,17.27
2023-02-09T09:48:43.842Z,14.97
2023-02-09T09:52:50.730Z,16.93
2023-02-09T09:56:55.840Z,14.83
2023-02-09T10:00:59.201Z,16.13
2023-02-09T10:05:11.551Z,15.93
2023-02-09T10:09:27.142Z,22.40
2023-02-09T10:13:36.442Z,17.23
2023-02-09T10:17:39.377Z,12.43
2023-02-09T10:21:42.440Z,16.50
2023-02-09T10:26:04.524Z,15.93
2023-02-09T10:30:20.911Z,15.63
2023-02-09T10:34:31.904Z,12.70
2023-02-09T10:38:35.314Z,13.43
2023-02-09T10:42:41.994Z,13.60
2023-02-09T10:46:47.827Z,11.70
2023-02-09T10:50:53.209Z,11.90
2023-02-09T10:55:00.134Z,12.73
2023-02-09T10:59:15.158Z,11.40
2023-02-09T11:03:21.637Z,12.00
2023-02-09T11:07:31.174Z,14.93
2023-02-09T11:11:37.785Z,13.10
2023-02-09T11:15:46.332Z,13.67
2023-02-09T11:20:20.903Z,11.10
2023-02-09T11:24:38.965Z,13.87
2023-02-09T11:28:51.192Z,12.23
2023-02-09T11:32:59.055Z,14.83
2023-02-09T11:37:16.467Z,14.93
2023-02-09T11:41:47.228Z,13.37
2023-02-09T11:45:51.966Z,16.20
2023-02-09T11:49:59.075Z,13.33
2023-02-09T11:54:08.612Z,12.70
2023-02-09T11:58:26.148Z,9.37
2023-02-09T12:02:46.305Z,10.30
2023-02-09T12:06:51.995Z,10.73
2023-02-09T12:11:09.103Z,12.07
2023-02-09T12:15:16.446Z,10.83
2023-02-09T12:19:29.358Z,11.75
2023-02-09T12:23:33.731Z,10.40
2023-02-09T12:27:40.974Z,11.60
2023-02-09T12:32:14.275Z,10.50
2023-02-09T12:36:30.535Z,8.77
2023-02-09T12:40:37.528Z,12.77
2023-02-09T12:44:55.960Z,10.98
2023-02-09T12:49:21.025Z,9.73
2023-02-09T12:53:36.073Z,9.73
2023-02-09T12:57:54.460Z,10.05
2023-02-09T13:02:27.178Z,13.60
2023-02-09T13:06:40.434Z,10.60
2023-02-09T13:10:47.332Z,9.67
2023-02-09T13:14:52.072Z,11.75
2023-02-09T13:19:03.752Z,13.07
2023-02-09T13:23:20.631Z,12.68
2023-02-09T13:27:25.429Z,10.65
2023-02-09T13:31:35.335Z,14.07
2023-02-09T13:35:58.654Z,13.40
2023-02-09T13:40:03.395Z,9.00
2023-02-09T13:44:20.696Z,11.13
2023-02-09T13:48:25.224Z,13.30
2023-02-09T13:52:36.428Z,11.48
2023-02-09T13:56:42.844Z,10.48
2023-02-09T14:00:49.650Z,11.38
2023-02-09T14:04:57.318Z,13.38
2023-02-09T14:09:03.612Z,9.57
2023-02-09T14:13:18.359Z,11.15
2023-02-09T14:17:26.340Z,10.63
2023-02-09T14:21:34.258Z,12.20
2023-02-09T14:25:40.376Z,11.45
2023-02-09T14:29:47.851Z,10.63
2023-02-09T14:33:53.275Z,10.85
2023-02-09T14:37:58.101Z,12.80
2023-02-09T14:42:18.416Z,9.98
2023-02-09T14:46:21.736Z,11.80
2023-02-09T14:50:25.432Z,10.75
2023-02-09T14:54:30.585Z,11.37
2023-02-09T14:58:35.172Z,10.67
2023-02-09T15:02:38.349Z,12.50
2023-02-09T15:06:45.055Z,11.37
2023-02-09T15:10:53.382Z,12.53
2023-02-09T15:15:00.547Z,13.70
2023-02-09T15:19:05.409Z,11.00
2023-02-09T15:23:08.882Z,11.67
2023-02-09T15:27:16.628Z,12.70
2023-02-09T15:31:21.989Z,10.03
2023-02-09T15:35:27.346Z,10.73
2023-02-09T15:39:31.579Z,9.13
2023-02-09T15:43:51.866Z,11.13
2023-02-09T15:47:58.892Z,9.43
2023-02-09T15:52:02.048Z,12.13
2023-02-09T15:56:06.617Z,9.57
2023-02-09T16:00:17.325Z,10.20
2023-02-09T16:04:21.970Z,11.10
2023-02-09T16:08:27.068Z,12.17
2023-02-09T16:12:30.530Z,10.13
2023-02-09T16:16:33.811Z,11.07
2023-02-09T16:20:39.240Z,10.60
2023-02-09T16:24:45.934Z,12.50
2023-02-09T16:28:49.067Z,11.27
2023-02-09T16:32:53.297Z,9.77
2023-02-09T16:36:57.750Z,12.17
2023-02-09T16:41:00.745Z,11.80
2023-02-09T16:45:03.928Z,9.93
2023-02-09T16:49:06.994Z,13.10
2023-02-09T16:53:18.371Z,11.90
2023-02-09T16:57:23.460Z,12.87
2023-02-09T17:01:26.548Z,13.17
2023-02-09T17:05:32.038Z,10.63
2023-02-09T17:09:36.544Z,13.77
2023-02-09T17:13:39.577Z,11.57
2023-02-09T17:17:48.121Z,12.13
2023-02-09T17:21:51.107Z,12.90
2023-02-09T17:25:56.235Z,11.87
2023-02-09T17:29:59.200Z,11.10
2023-02-09T17:34:04.206Z,10.90
2023-02-09T17:38:07.781Z,12.67
2023-02-09T17:42:22.840Z,13.50
2023-02-09T17:46:25.890Z,13.90
2023-02-09T17:50:29.516Z,11.97
2023-02-09T17:54:33.964Z,12.70
2023-02-09T17:58:38.739Z,12.40
2023-02-09T18:02:41.896Z,13.80
2023-02-09T18:06:45.075Z,11.83
2023-02-09T18:10:48.228Z,12.13
2023-02-09T18:14:53.135Z,13.00
2023-02-09T18:18:56.142Z,13.27
2023-02-09T18:22:59.425Z,11.53
2023-02-09T18:27:02.904Z,10.17
2023-02-09T18:31:08.345Z,11.70
2023-02-09T18:35:18.102Z,9.60
2023-02-09T18:39:21.237Z,10.77
2023-02-09T18:43:24.213Z,10.03
2023-02-09T18:47:28.709Z,10.40
2023-02-09T18:51:32.508Z,8.53
2023-02-09T18:55:36.143Z,14.43
2023-02-09T18:59:40.332Z,12.87
2023-02-09T19:03:44.767Z,10.30
2023-02-09T19:07:47.933Z,7.80
2023-02-09T19:11:50.991Z,10.80
2023-02-09T19:15:54.066Z,10.70
2023-02-09T19:19:59.744Z,11.83
2023-02-09T19:24:02.885Z,10.97
2023-02-09T19:28:06.266Z,12.17
2023-02-09T19:32:09.406Z,10.07
2023-02-09T19:36:13.900Z,10.17
2023-02-09T19:40:21.517Z,9.83
2023-02-09T19:44:24.628Z,10.53
2023-02-09T19:48:27.612Z,11.63
2023-02-09T19:52:34.850Z,8.57
2023-02-09T19:56:38.465Z,10.07
2023-02-09T20:00:41.780Z,9.83
2023-02-09T20:04:45.959Z,12.70
2023-02-09T20:08:50.627Z,11.93
2023-02-09T20:12:53.636Z,12.70
2023-02-09T20:16:56.849Z,10.20
2023-02-09T20:20:59.802Z,11.03
2023-02-09T20:25:04.328Z,9.80
2023-02-09T20:29:07.407Z,13.93
2023-02-09T20:33:11.024Z,11.53
2023-02-09T20:37:14.049Z,10.50
2023-02-09T20:41:19.410Z,12.43
2023-02-09T20:45:39.773Z,15.20
2023-02-09T20:49:43.347Z,7.60
2023-02-09T20:53:49.788Z,12.20
2023-02-09T20:57:57.877Z,11.17
2023-02-09T21:02:14.273Z,11.33
2023-02-09T21:06:22.443Z,12.77
2023-02-09T21:10:31.593Z,10.17
2023-02-09T21:14:43.906Z,10.37
2023-02-09T21:18:46.898Z,10.87
2023-02-09T21:22:50.527Z,11.80
2023-02-09T21:26:53.523Z,10.00
2023-02-09T21:30:58.100Z,12.10
2023-02-09T21:35:01.041Z,11.53
2023-02-09T21:39:04.288Z,11.73
2023-02-09T21:43:07.234Z,12.33
2023-02-09T21:47:11.784Z,14.13
2023-02-09T21:51:14.748Z,10.07
2023-02-09T21:55:18.154Z,13.50
2023-02-09T21:59:21.300Z,11.93
2023-02-09T22:03:26.119Z,11.17
2023-02-09T22:07:29.629Z,15.17
2023-02-09T22:11:32.768Z,12.30
2023-02-09T22:15:35.746Z,10.43
2023-02-09T22:19:40.274Z,15.53
2023-02-09T22:23:43.448Z,11.80
2023-02-09T22:27:46.543Z,11.93
2023-02-09T22:31:49.528Z,11.23
2023-02-09T22:35:54.039Z,12.73
2023-02-09T22:39:57.216Z,14.60
2023-02-09T22:44:02.207Z,15.93
2023-02-09T22:48:05.628Z,12.93
2023-02-09T22:52:10.517Z,12.67
2023-02-09T22:56:13.901Z,13.33
2023-02-09T23:00:17.908Z,15.40
2023-02-09T23:04:21.242Z,14.70
2023-02-09T23:08:25.737Z,12.40
2023-02-09T23:12:28.710Z,15.63
2023-02-09T23:16:32.477Z,9.50
2023-02-09T23:20:35.441Z,14.10
2023-02-09T23:24:39.972Z,11.07
2023-02-09T23:28:43.272Z,15.93
2023-02-09T23:32:46.549Z,12.97
2023-02-09T23:36:49.778Z,14.83
2023-02-09T23:40:54.427Z,13.77
2023-02-09T23:44:57.514Z,18.90
2023-02-09T23:49:00.829Z,15.27
2023-02-09T23:53:03.964Z,16.80
2023-02-09T23:57:08.712Z,14.83
